Time;durP1;ratioP1;P1;durP2;ratioP2;P2;SDS_P1;SDS_P2;PMS_P1;PMS_P2;Temp;Humidity;BMP_temperature;BMP_pressure;BME280_temperature;BME280_humidity;BME280_pressure;Samples;Min_cycle;Max_cycle;Signal;HPM_P1;HPM_P2
2023/07/20 16:36:41;;;;;;;3.42;2.33;;;;;;;;;;5152445;27;20463;-76
2023/07/20 16:39:07;;;;;;;3.15;2.15;;;;;;;;;;5148804;27;20112;-78
2023/07/20 16:41:33;;;;;;;4.13;2.50;;;;;;;;;;5131645;28;20370;-78
2023/07/20 16:43:59;;;;;;;3.33;2.05;;;;;;;;;;5131681;28;20100;-78
2023/07/20 16:46:25;;;;;;;3.75;2.40;;;;;;;;;;5131447;27;20469;-78
2023/07/20 16:48:52;;;;;;;3.28;2.20;;;;;;;;;;5131954;28;20046;-78
2023/07/20 16:51:18;;;;;;;3.85;2.60;;;;;;;;;;5113646;28;20058;-78
2023/07/20 16:53:44;;;;;;;3.63;2.28;;;;;;;;;;5131507;28;20131;-78
2023/07/20 16:56:11;;;;;;;3.95;2.55;;;;;;;;;;5131250;28;20130;-78
2023/07/20 16:58:38;;;;;;;4.28;2.63;;;;;;;;;;5131603;27;20468;-78
2023/07/20 17:01:04;;;;;;;4.15;2.40;;;;;;;;;;5150774;27;20030;-77
2023/07/20 17:03:31;;;;;;;5.47;2.55;;;;;;;;;;5142926;27;20050;-78
2023/07/20 17:05:57;;;;;;;3.60;2.50;;;;;;;;;;5154554;27;20038;-78
2023/07/20 17:08:23;;;;;;;3.97;2.50;;;;;;;;;;5152805;27;20094;-77
2023/07/20 17:10:49;;;;;;;5.15;3.03;;;;;;;;;;5150473;27;20508;-77
2023/07/20 17:13:16;;;;;;;5.80;2.70;;;;;;;;;;5137906;27;20042;-77
2023/07/20 17:15:46;;;;;;;4.47;2.55;;;;;;;;;;5139674;27;20071;-77
2023/07/20 17:18:12;;;;;;;4.75;2.55;;;;;;;;;;5130323;28;20127;-77
2023/07/20 17:20:39;;;;;;;4.57;2.88;;;;;;;;;;5138319;27;20047;-77
2023/07/20 17:23:05;;;;;;;3.92;2.53;;;;;;;;;;5130757;28;20051;-77
2023/07/20 17:25:31;;;;;;;3.47;2.60;;;;;;;;;;5130965;28;20047;-77
2023/07/20 17:27:58;;;;;;;4.22;2.40;;;;;;;;;;5130948;27;20369;-77
2023/07/20 17:30:24;;;;;;;4.80;2.88;;;;;;;;;;5137964;27;20039;-77
2023/07/20 17:32:51;;;;;;;4.72;2.60;;;;;;;;;;5151476;27;20385;-75
2023/07/20 17:35:18;;;;;;;5.55;2.80;;;;;;;;;;5139522;27;20082;-75
2023/07/20 17:37:44;;;;;;;3.78;2.53;;;;;;;;;;5141716;27;20103;-75
2023/07/20 17:40:10;;;;;;;3.83;2.22;;;;;;;;;;5120184;27;20039;-75
2023/07/20 17:42:37;;;;;;;3.05;2.08;;;;;;;;;;5142138;27;20039;-75
2023/07/20 17:45:03;;;;;;;4.32;2.92;;;;;;;;;;5149286;27;20485;-75
2023/07/20 17:47:29;;;;;;;5.30;3.20;;;;;;;;;;5120273;27;20039;-75
2023/07/20 17:49:55;;;;;;;3.08;2.20;;;;;;;;;;5118119;27;20050;-75
2023/07/20 17:52:22;;;;;;;3.83;2.75;;;;;;;;;;5116205;28;20045;-75
2023/07/20 17:54:48;;;;;;;6.05;2.95;;;;;;;;;;5116729;28;20129;-74
2023/07/20 17:57:14;;;;;;;5.32;2.80;;;;;;;;;;5116352;28;20058;-75
2023/07/20 17:59:41;;;;;;;5.57;3.17;;;;;;;;;;5104784;28;20044;-75
2023/07/20 18:02:08;;;;;;;4.47;2.83;;;;;;;;;;5114328;27;20058;-75
2023/07/20 18:04:35;;;;;;;4.30;2.70;;;;;;;;;;5136875;27;20039;-75
2023/07/20 18:07:01;;;;;;;4.40;3.05;;;;;;;;;;5136496;27;20043;-75
2023/07/20 18:09:28;;;;;;;4.65;2.92;;;;;;;;;;5117987;27;20390;-75
2023/07/20 18:11:54;;;;;;;3.72;3.28;;;;;;;;;;5124569;27;20051;-75
2023/07/20 18:14:21;;;;;;;10.85;2.70;;;;;;;;;;5115956;28;20142;-75
2023/07/20 18:16:47;;;;;;;5.68;2.80;;;;;;;;;;5130348;27;20053;-75
2023/07/20 18:19:13;;;;;;;5.78;2.88;;;;;;;;;;5116894;27;20315;-75
2023/07/20 18:21:39;;;;;;;5.93;2.83;;;;;;;;;;5098134;28;20383;-75
2023/07/20 18:24:05;;;;;;;5.22;2.97;;;;;;;;;;5120607;27;20050;-75
2023/07/20 18:26:32;;;;;;;4.65;2.65;;;;;;;;;;5107636;27;20039;-75
2023/07/20 18:28:58;;;;;;;10.20;2.78;;;;;;;;;;5113484;27;20066;-75
2023/07/20 18:31:24;;;;;;;4.68;2.90;;;;;;;;;;5123053;27;20048;-75
2023/07/20 18:33:50;;;;;;;4.95;2.88;;;;;;;;;;5111605;27;20489;-75
2023/07/20 18:36:16;;;;;;;6.57;3.03;;;;;;;;;;5124941;27;20070;-75
2023/07/20 18:38:42;;;;;;;5.05;2.78;;;;;;;;;;5124795;27;20188;-75
2023/07/20 18:41:08;;;;;;;4.40;2.90;;;;;;;;;;5134514;27;20130;-75
2023/07/20 18:43:36;;;;;;;4.93;3.00;;;;;;;;;;5109217;27;20181;-75
2023/07/20 18:46:02;;;;;;;5.03;2.55;;;;;;;;;;5125442;27;20055;-75
2023/07/20 18:48:28;;;;;;;4.68;2.63;;;;;;;;;;5115361;27;20043;-75
2023/07/20 18:50:54;;;;;;;4.20;2.95;;;;;;;;;;5114955;27;20047;-75
2023/07/20 18:53:20;;;;;;;3.83;2.50;;;;;;;;;;5133787;27;20046;-75
2023/07/20 18:55:46;;;;;;;6.20;3.15;;;;;;;;;;5108272;27;20047;-75
2023/07/20 18:58:13;;;;;;;4.18;2.63;;;;;;;;;;5135813;27;20035;-75
2023/07/20 19:00:39;;;;;;;4.38;2.65;;;;;;;;;;5115895;27;20126;-74
2023/07/20 19:03:05;;;;;;;4.60;2.50;;;;;;;;;;5135183;27;20515;-74
2023/07/20 19:05:31;;;;;;;4.97;3.03;;;;;;;;;;5121389;27;20052;-74
2023/07/20 19:07:59;;;;;;;3.08;2.47;;;;;;;;;;5097722;27;20049;-75
2023/07/20 19:10:29;;;;;;;5.45;3.15;;;;;;;;;;5128970;27;20043;-75
2023/07/20 19:12:55;;;;;;;4.68;2.33;;;;;;;;;;5134903;27;20517;-75
2023/07/20 19:15:21;;;;;;;5.00;2.45;;;;;;;;;;5133407;27;20409;-75
2023/07/20 19:17:47;;;;;;;4.57;2.58;;;;;;;;;;5133191;27;20039;-75
2023/07/20 19:20:17;;;;;;;3.97;2.38;;;;;;;;;;5130660;27;20553;-75
2023/07/20 19:22:43;;;;;;;3.20;2.33;;;;;;;;;;5132480;27;20499;-76
2023/07/20 19:25:11;;;;;;;4.28;2.40;;;;;;;;;;5125894;27;20043;-75
2023/07/20 19:27:37;;;;;;;3.92;2.30;;;;;;;;;;5130013;27;20047;-75
2023/07/20 19:30:03;;;;;;;4.40;2.65;;;;;;;;;;5130888;27;20100;-75
2023/07/20 19:32:30;;;;;;;4.03;2.42;;;;;;;;;;5124289;27;20058;-75
2023/07/20 19:34:56;;;;;;;4.10;2.40;;;;;;;;;;5131561;27;20051;-75
2023/07/20 19:37:22;;;;;;;3.83;2.50;;;;;;;;;;5113065;27;20054;-75
2023/07/20 19:39:48;;;;;;;3.65;2.20;;;;;;;;;;5136231;27;20043;-75
2023/07/20 19:42:14;;;;;;;10.95;2.88;;;;;;;;;;5112392;27;20043;-75
2023/07/20 19:44:40;;;;;;;5.78;2.78;;;;;;;;;;5118649;27;20047;-75
2023/07/20 19:47:06;;;;;;;3.42;2.28;;;;;;;;;;5127385;27;20036;-75
2023/07/20 19:49:32;;;;;;;4.20;2.30;;;;;;;;;;5106162;27;20092;-75
2023/07/20 19:51:58;;;;;;;2.70;2.45;;;;;;;;;;5098638;27;20076;-75
2023/07/20 19:54:24;;;;;;;4.15;2.30;;;;;;;;;;5130188;27;20093;-75
2023/07/20 19:56:50;;;;;;;3.55;2.10;;;;;;;;;;5105612;27;20227;-75
2023/07/20 19:59:16;;;;;;;4.63;2.60;;;;;;;;;;5133933;27;20039;-75
2023/07/20 20:01:42;;;;;;;7.97;2.42;;;;;;;;;;5115252;27;20100;-75
2023/07/20 20:04:09;;;;;;;5.82;2.47;;;;;;;;;;5102025;27;20039;-75
2023/07/20 20:06:35;;;;;;;6.43;2.60;;;;;;;;;;5131681;27;20083;-75
2023/07/20 20:09:01;;;;;;;2.83;2.45;;;;;;;;;;5133031;27;20528;-75
2023/07/20 20:11:28;;;;;;;3.60;2.58;;;;;;;;;;5091454;27;20043;-75
2023/07/20 20:13:54;;;;;;;5.28;2.63;;;;;;;;;;5113653;28;20047;-75
2023/07/20 20:16:21;;;;;;;3.53;2.67;;;;;;;;;;5133394;27;20190;-75
2023/07/20 20:18:47;;;;;;;2.75;2.25;;;;;;;;;;5131040;27;20039;-75
2023/07/20 20:21:14;;;;;;;4.78;2.90;;;;;;;;;;5128756;27;20050;-75
2023/07/20 20:23:40;;;;;;;4.55;3.00;;;;;;;;;;5131388;27;20058;-75
2023/07/20 20:26:09;;;;;;;4.13;2.78;;;;;;;;;;5126003;27;20050;-75
2023/07/20 20:28:36;;;;;;;4.70;3.33;;;;;;;;;;5131868;27;20042;-74
2023/07/20 20:31:03;;;;;;;5.95;3.13;;;;;;;;;;5133295;27;20589;-74
2023/07/20 20:33:35;;;;;;;6.53;3.40;;;;;;;;;;5133321;28;20047;-74
2023/07/20 20:36:01;;;;;;;7.22;3.28;;;;;;;;;;5119996;28;20122;-74
2023/07/20 20:38:27;;;;;;;4.40;3.58;;;;;;;;;;5131595;28;20484;-74
2023/07/20 20:40:53;;;;;;;3.67;3.30;;;;;;;;;;5121243;28;20036;-74
2023/07/20 20:43:20;;;;;;;5.80;3.50;;;;;;;;;;5125296;28;20047;-74
2023/07/20 20:45:46;;;;;;;4.05;3.35;;;;;;;;;;5119988;27;20043;-75
2023/07/20 20:48:13;;;;;;;4.15;3.13;;;;;;;;;;5124237;28;20127;-76
2023/07/20 20:50:43;;;;;;;5.40;3.00;;;;;;;;;;5117854;28;20039;-74
2023/07/20 20:53:09;;;;;;;4.95;2.67;;;;;;;;;;5119446;28;20135;-73
2023/07/20 20:55:36;;;;;;;5.35;2.90;;;;;;;;;;5121194;28;20047;-74
2023/07/20 20:58:03;;;;;;;7.90;2.90;;;;;;;;;;5137627;28;20043;-74
2023/07/20 21:00:29;;;;;;;4.57;2.72;;;;;;;;;;5133675;28;20373;-74
2023/07/20 21:02:55;;;;;;;4.78;2.78;;;;;;;;;;5133764;28;20118;-74
2023/07/20 21:05:24;;;;;;;4.60;2.67;;;;;;;;;;5133727;28;20130;-74
2023/07/20 21:07:50;;;;;;;3.72;2.92;;;;;;;;;;5132512;28;20072;-74
2023/07/20 21:10:16;;;;;;;5.38;3.00;;;;;;;;;;5133659;28;20503;-74
2023/07/20 21:12:43;;;;;;;4.07;2.97;;;;;;;;;;5115342;28;20052;-75
2023/07/20 21:15:10;;;;;;;3.58;2.80;;;;;;;;;;5078167;28;20075;-75
2023/07/20 21:17:36;;;;;;;5.03;2.60;;;;;;;;;;5115106;28;20047;-74
2023/07/20 21:20:03;;;;;;;4.53;2.80;;;;;;;;;;5133593;28;20043;-75
2023/07/20 21:22:29;;;;;;;4.40;2.80;;;;;;;;;;5100992;28;20047;-74
2023/07/20 21:24:55;;;;;;;3.75;2.20;;;;;;;;;;5116529;28;20043;-74
2023/07/20 21:27:21;;;;;;;2.70;2.10;;;;;;;;;;5105717;27;20046;-74
2023/07/20 21:29:47;;;;;;;7.60;2.30;;;;;;;;;;5112276;27;20122;-74
2023/07/20 21:32:13;;;;;;;2.63;2.08;;;;;;;;;;5118207;27;20176;-74
2023/07/20 21:34:39;;;;;;;3.70;2.13;;;;;;;;;;5098492;28;20052;-74
2023/07/20 21:37:05;;;;;;;3.38;2.10;;;;;;;;;;5116593;27;20534;-74
2023/07/20 21:39:32;;;;;;;2.97;2.10;;;;;;;;;;5116977;27;20409;-74
2023/07/20 21:41:58;;;;;;;2.67;2.20;;;;;;;;;;5100329;27;20469;-74
2023/07/20 21:44:24;;;;;;;2.53;2.25;;;;;;;;;;5131200;27;20035;-75
2023/07/20 21:46:50;;;;;;;4.05;2.20;;;;;;;;;;5126510;27;20532;-74
2023/07/20 21:49:16;;;;;;;3.30;2.15;;;;;;;;;;5129820;27;20478;-74
2023/07/20 21:51:42;;;;;;;3.13;2.50;;;;;;;;;;5127331;27;20039;-74
2023/07/20 21:54:08;;;;;;;2.83;1.98;;;;;;;;;;5116349;27;20401;-74
2023/07/20 21:56:34;;;;;;;3.85;2.42;;;;;;;;;;5124306;27;20100;-74
2023/07/20 21:59:00;;;;;;;3.55;2.30;;;;;;;;;;5136845;27;20039;-74
2023/07/20 22:01:27;;;;;;;3.85;2.20;;;;;;;;;;5136547;27;20045;-74
2023/07/20 22:03:53;;;;;;;4.25;2.35;;;;;;;;;;5131659;27;20386;-74
2023/07/20 22:06:19;;;;;;;3.22;2.30;;;;;;;;;;5115604;27;20052;-74
2023/07/20 22:08:45;;;;;;;3.38;2.40;;;;;;;;;;5116119;28;20362;-74
2023/07/20 22:11:11;;;;;;;4.18;2.10;;;;;;;;;;5116213;28;20493;-74
2023/07/20 22:13:37;;;;;;;4.95;3.00;;;;;;;;;;5116426;28;20052;-74
2023/07/20 22:16:03;;;;;;;4.45;2.90;;;;;;;;;;5123793;27;20050;-74
2023/07/20 22:18:30;;;;;;;4.03;3.25;;;;;;;;;;5136785;27;20122;-75
2023/07/20 22:20:58;;;;;;;4.00;3.13;;;;;;;;;;5123952;27;20044;-75
2023/07/20 22:23:25;;;;;;;4.82;2.90;;;;;;;;;;5115864;27;20044;-75
2023/07/20 22:25:51;;;;;;;3.80;2.75;;;;;;;;;;5130782;27;20072;-75
2023/07/20 22:28:17;;;;;;;4.53;2.60;;;;;;;;;;5124801;27;20043;-74
2023/07/20 22:30:44;;;;;;;3.60;2.70;;;;;;;;;;5128838;27;20501;-74
2023/07/20 22:33:10;;;;;;;4.35;3.10;;;;;;;;;;5115250;27;20092;-74
2023/07/20 22:35:37;;;;;;;4.13;2.78;;;;;;;;;;5104658;28;20044;-75
2023/07/20 22:38:03;;;;;;;5.55;3.03;;;;;;;;;;5116066;27;20048;-74
2023/07/20 22:40:29;;;;;;;5.10;3.63;;;;;;;;;;5120918;27;20115;-74
2023/07/20 22:42:55;;;;;;;5.20;3.50;;;;;;;;;;5117302;27;20122;-74
2023/07/20 22:45:21;;;;;;;6.63;3.67;;;;;;;;;;5115631;27;20057;-74
2023/07/20 22:47:47;;;;;;;4.88;3.75;;;;;;;;;;5115265;27;20404;-74
2023/07/20 22:50:17;;;;;;;5.85;3.95;;;;;;;;;;5099296;28;20039;-74
2023/07/20 22:52:44;;;;;;;7.00;3.80;;;;;;;;;;5115760;27;20484;-74
2023/07/20 22:55:10;;;;;;;6.63;4.07;;;;;;;;;;5102764;27;20043;-74
2023/07/20 22:57:37;;;;;;;6.43;4.00;;;;;;;;;;5135300;27;20091;-74
2023/07/20 23:00:09;;;;;;;5.68;4.00;;;;;;;;;;5098539;27;20051;-75
2023/07/20 23:02:41;;;;;;;4.93;3.63;;;;;;;;;;5132380;27;22400;-74
2023/07/20 23:05:08;;;;;;;5.10;3.72;;;;;;;;;;5133541;27;20489;-74
2023/07/20 23:07:34;;;;;;;4.78;3.70;;;;;;;;;;5133673;27;20347;-74
2023/07/20 23:10:01;;;;;;;5.93;3.72;;;;;;;;;;5116178;27;20043;-74
2023/07/20 23:12:28;;;;;;;5.35;3.83;;;;;;;;;;5104353;28;20047;-74
2023/07/20 23:14:54;;;;;;;4.88;3.45;;;;;;;;;;5113170;28;20501;-74
2023/07/20 23:17:21;;;;;;;6.07;3.38;;;;;;;;;;5133137;27;20072;-74
2023/07/20 23:19:47;;;;;;;4.78;3.20;;;;;;;;;;5133025;27;20053;-74
2023/07/20 23:22:17;;;;;;;5.80;3.58;;;;;;;;;;5121177;27;20031;-74
2023/07/20 23:24:44;;;;;;;5.07;3.13;;;;;;;;;;5121712;27;20054;-74
2023/07/20 23:27:10;;;;;;;4.47;3.30;;;;;;;;;;5095698;28;20050;-74
2023/07/20 23:29:36;;;;;;;3.67;3.30;;;;;;;;;;5119304;27;20049;-75
2023/07/20 23:32:03;;;;;;;4.03;3.08;;;;;;;;;;5096065;28;20165;-74
2023/07/20 23:34:29;;;;;;;4.18;3.10;;;;;;;;;;5110380;27;20507;-75
2023/07/20 23:36:55;;;;;;;4.18;3.20;;;;;;;;;;5134206;27;20481;-74
2023/07/20 23:39:22;;;;;;;4.32;3.70;;;;;;;;;;5134671;27;20047;-74
2023/07/20 23:41:48;;;;;;;5.13;3.47;;;;;;;;;;5133355;27;20515;-74
2023/07/20 23:44:15;;;;;;;5.03;3.58;;;;;;;;;;5133831;27;20487;-74
2023/07/20 23:46:41;;;;;;;3.70;3.15;;;;;;;;;;5134310;27;20550;-74
2023/07/20 23:49:08;;;;;;;4.13;3.30;;;;;;;;;;5122915;27;20050;-74
2023/07/20 23:51:34;;;;;;;4.68;3.50;;;;;;;;;;5132844;27;20057;-74
2023/07/20 23:54:00;;;;;;;4.72;3.83;;;;;;;;;;5109731;27;20067;-74
2023/07/20 23:56:29;;;;;;;4.60;3.90;;;;;;;;;;5121948;27;20514;-74
2023/07/20 23:58:55;;;;;;;5.00;3.95;;;;;;;;;;5136807;27;20054;-74
